createdAt,value
2022-11-17T00:01:10.637Z,66.93
2022-11-17T00:03:40.836Z,69.78
2022-11-17T00:06:10.600Z,70.26
2022-11-17T00:08:40.456Z,71.58
2022-11-17T00:11:11.275Z,72.02
2022-11-17T00:14:00.257Z,70.30
2022-11-17T00:16:30.679Z,70.18
2022-11-17T00:19:18.434Z,70.56
2022-11-17T00:21:48.861Z,66.84
2022-11-17T00:24:18.842Z,71.28
2022-11-17T00:27:03.832Z,68.83
2022-11-17T00:29:38.553Z,69.07
2022-11-17T00:32:37.627Z,69.99
2022-11-17T00:35:08.559Z,69.68
2022-11-17T00:38:00.930Z,71.70
2022-11-17T00:40:31.108Z,70.84
2022-11-17T00:43:00.949Z,71.00
2022-11-17T00:45:30.699Z,69.14
2022-11-17T00:48:01.349Z,66.56
2022-11-17T00:50:31.111Z,68.89
2022-11-17T00:53:00.956Z,67.12
2022-11-17T00:55:30.787Z,66.74
2022-11-17T00:58:00.584Z,68.13
2022-11-17T01:00:30.360Z,67.63
2022-11-17T01:03:00.297Z,68.29
2022-11-17T01:05:32.973Z,69.84
2022-11-17T01:08:03.789Z,69.99
2022-11-17T01:10:36.339Z,70.79
2022-11-17T01:13:06.537Z,70.03
2022-11-17T01:15:36.398Z,71.33
2022-11-17T01:18:06.360Z,70.87
2022-11-17T01:20:36.184Z,69.38
2022-11-17T01:23:06.519Z,69.47
2022-11-17T01:25:36.248Z,70.10
2022-11-17T01:28:06.221Z,70.50
2022-11-17T01:30:36.452Z,70.11
2022-11-17T01:33:06.280Z,70.14
2022-11-17T01:35:36.325Z,69.71
2022-11-17T01:38:06.115Z,70.07
2022-11-17T01:40:35.841Z,72.55
2022-11-17T01:43:10.559Z,70.02
2022-11-17T01:45:41.005Z,69.94
2022-11-17T01:48:15.144Z,69.64
2022-11-17T01:50:50.935Z,69.15
2022-11-17T01:53:21.353Z,66.66
2022-11-17T01:55:57.597Z,70.63
2022-11-17T01:58:37.268Z,70.95
2022-11-17T02:01:08.539Z,70.91
2022-11-17T02:03:41.421Z,70.67
2022-11-17T02:06:21.162Z,71.46
2022-11-17T02:08:54.823Z,70.96
2022-11-17T02:11:31.328Z,72.85
2022-11-17T02:14:03.438Z,71.01
2022-11-17T02:16:34.657Z,70.77
2022-11-17T02:19:07.134Z,71.31
2022-11-17T02:21:54.026Z,72.43
2022-11-17T02:24:46.577Z,70.84
2022-11-17T02:27:43.490Z,72.76
2022-11-17T02:30:21.212Z,73.19
2022-11-17T02:33:33.854Z,70.39
2022-11-17T02:36:13.444Z,72.61
2022-11-17T02:38:57.937Z,72.82
2022-11-17T02:41:51.875Z,73.16
2022-11-17T02:44:33.738Z,71.75
2022-11-17T02:47:18.472Z,73.65
2022-11-17T02:49:55.012Z,76.18
2022-11-17T02:52:25.683Z,76.73
2022-11-17T02:55:01.217Z,77.35
2022-11-17T02:57:39.894Z,78.45
2022-11-17T03:00:14.544Z,77.14
2022-11-17T03:03:09.334Z,78.42
2022-11-17T03:06:05.605Z,77.97
2022-11-17T03:09:05.366Z,77.88
2022-11-17T03:11:47.462Z,78.64
2022-11-17T03:14:22.157Z,76.41
2022-11-17T03:17:02.597Z,78.32
2022-11-17T03:19:49.690Z,80.02
2022-11-17T03:22:50.659Z,78.86
2022-11-17T03:25:24.714Z,79.42
2022-11-17T03:28:02.084Z,80.50
2022-11-17T03:30:37.287Z,80.45
2022-11-17T03:33:17.907Z,80.19
2022-11-17T03:35:58.606Z,79.32
2022-11-17T03:38:31.984Z,79.28
2022-11-17T03:41:05.088Z,79.92
2022-11-17T03:43:35.718Z,80.00
2022-11-17T03:46:14.818Z,80.65
2022-11-17T03:48:49.936Z,80.32
2022-11-17T03:51:29.792Z,80.73
2022-11-17T03:54:00.338Z,81.25
2022-11-17T03:56:29.973Z,81.42
2022-11-17T03:59:01.375Z,79.48
2022-11-17T04:01:34.315Z,81.63
2022-11-17T04:04:04.653Z,81.60
2022-11-17T04:06:34.407Z,82.40
2022-11-17T04:09:04.139Z,83.40
2022-11-17T04:11:52.396Z,83.54
2022-11-17T04:14:40.679Z,84.08
2022-11-17T04:17:10.793Z,84.05
2022-11-17T04:19:40.491Z,84.03
2022-11-17T04:22:10.303Z,84.63
2022-11-17T04:24:40.039Z,84.87
2022-11-17T04:27:29.545Z,84.91
2022-11-17T04:29:59.384Z,85.49
2022-11-17T04:32:29.067Z,85.44
2022-11-17T04:34:58.982Z,85.77
2022-11-17T04:37:28.661Z,86.37
2022-11-17T04:39:58.777Z,84.51
2022-11-17T04:42:28.391Z,86.04
2022-11-17T04:44:57.601Z,84.41
2022-11-17T04:47:27.573Z,86.24
2022-11-17T04:49:57.259Z,85.47
2022-11-17T04:52:29.759Z,85.77
2022-11-17T04:55:00.348Z,85.43
2022-11-17T04:57:29.545Z,83.88
2022-11-17T04:59:59.280Z,84.59
2022-11-17T05:02:29.925Z,85.68
2022-11-17T05:04:59.890Z,85.21
2022-11-17T05:07:29.708Z,85.72
2022-11-17T05:09:59.666Z,85.03
2022-11-17T05:12:47.590Z,85.02
2022-11-17T05:15:37.835Z,86.59
2022-11-17T05:18:08.097Z,86.68
2022-11-17T05:20:37.775Z,86.57
2022-11-17T05:23:25.912Z,85.20
2022-11-17T05:25:55.860Z,86.67
2022-11-17T05:28:25.063Z,84.91
2022-11-17T05:30:54.636Z,86.19
2022-11-17T05:33:24.871Z,84.88
2022-11-17T05:35:55.350Z,86.51
2022-11-17T05:38:25.025Z,87.44
2022-11-17T05:40:54.237Z,85.47
2022-11-17T05:43:24.228Z,86.73
2022-11-17T05:45:54.072Z,86.80
2022-11-17T05:48:23.990Z,87.33
2022-11-17T05:50:57.939Z,87.71
2022-11-17T05:53:28.456Z,87.41
2022-11-17T05:56:17.294Z,87.77
2022-11-17T05:58:52.480Z,88.41
2022-11-17T06:01:23.062Z,88.45
2022-11-17T06:03:57.760Z,89.19
2022-11-17T06:06:28.044Z,89.25
2022-11-17T06:08:58.133Z,89.12
2022-11-17T06:11:27.812Z,89.10
2022-11-17T06:13:57.262Z,87.88
2022-11-17T06:16:30.674Z,88.48
2022-11-17T06:19:09.408Z,88.99
2022-11-17T06:22:10.082Z,89.63
2022-11-17T06:24:30.155Z,89.74
2022-11-17T06:26:59.965Z,89.98
2022-11-17T06:29:31.796Z,90.22
2022-11-17T06:32:02.728Z,90.60
2022-11-17T06:34:34.038Z,90.75
2022-11-17T06:37:04.628Z,90.77
2022-11-17T06:39:34.356Z,90.98
2022-11-17T06:42:03.586Z,89.81
2022-11-17T06:44:33.503Z,90.74
2022-11-17T06:47:03.773Z,90.84
2022-11-17T06:49:33.481Z,91.00
2022-11-17T06:52:05.955Z,89.71
2022-11-17T06:54:36.802Z,90.99
2022-11-17T06:57:06.639Z,91.25
2022-11-17T06:59:36.601Z,91.47
2022-11-17T07:02:06.325Z,91.83
2022-11-17T07:04:35.600Z,90.68
2022-11-17T07:07:05.498Z,91.78
2022-11-17T07:09:35.230Z,91.85
2022-11-17T07:12:05.492Z,90.72
2022-11-17T07:14:35.423Z,92.23
2022-11-17T07:17:05.179Z,92.46
2022-11-17T07:19:34.459Z,91.26
2022-11-17T07:22:05.365Z,92.26
2022-11-17T07:24:35.376Z,92.62
2022-11-17T07:27:06.199Z,92.95
2022-11-17T07:29:36.289Z,93.02
2022-11-17T07:32:06.054Z,91.88
2022-11-17T07:34:35.699Z,92.94
2022-11-17T07:37:05.382Z,91.76
2022-11-17T07:39:35.595Z,92.71
2022-11-17T07:42:05.630Z,92.72
2022-11-17T07:44:35.723Z,92.78
2022-11-17T07:47:05.489Z,92.97
2022-11-17T07:49:34.736Z,91.84
2022-11-17T07:52:04.506Z,92.82
2022-11-17T07:54:34.476Z,93.46
2022-11-17T07:57:04.285Z,93.52
2022-11-17T07:59:34.933Z,93.74
2022-11-17T08:02:05.160Z,93.51
2022-11-17T08:04:34.903Z,93.38
2022-11-17T08:07:05.276Z,92.52
2022-11-17T08:09:34.977Z,93.35
2022-11-17T08:12:04.778Z,93.88
2022-11-17T08:14:34.090Z,92.61
2022-11-17T08:17:03.802Z,93.63
2022-11-17T08:19:33.822Z,94.09
2022-11-17T08:22:03.810Z,94.01
2022-11-17T08:24:34.546Z,94.11
2022-11-17T08:27:04.440Z,94.21
2022-11-17T08:29:38.677Z,94.26
2022-11-17T08:32:08.913Z,94.18
2022-11-17T08:34:38.660Z,94.17
2022-11-17T08:37:07.947Z,93.26
2022-11-17T08:39:37.783Z,94.42
2022-11-17T08:42:07.590Z,94.29
2022-11-17T08:44:37.373Z,94.04
2022-11-17T08:47:07.149Z,94.09
2022-11-17T08:49:37.224Z,93.96
2022-11-17T08:52:07.065Z,93.92
2022-11-17T08:54:36.861Z,93.88
2022-11-17T08:57:06.856Z,94.10
2022-11-17T08:59:36.713Z,94.10
2022-11-17T09:02:07.038Z,93.84
2022-11-17T09:04:36.880Z,93.62
2022-11-17T09:07:06.744Z,93.31
2022-11-17T09:09:36.627Z,93.27
2022-11-17T09:12:07.343Z,93.08
2022-11-17T09:14:37.403Z,92.78
2022-11-17T09:17:07.783Z,92.03
2022-11-17T09:19:37.535Z,91.93
2022-11-17T09:22:07.650Z,91.12
2022-11-17T09:24:37.304Z,91.45
2022-11-17T09:27:06.588Z,89.01
2022-11-17T09:29:36.217Z,83.76
2022-11-17T09:32:05.869Z,78.81
2022-11-17T09:34:35.492Z,66.77
2022-11-17T09:37:05.245Z,69.68
2022-11-17T09:39:34.940Z,74.62
2022-11-17T09:42:05.002Z,78.14
2022-11-17T09:44:43.527Z,80.97
2022-11-17T09:47:32.333Z,82.83
2022-11-17T09:50:07.798Z,82.94
2022-11-17T09:52:46.621Z,82.59
2022-11-17T09:55:31.165Z,83.53
2022-11-17T09:58:19.631Z,84.60
2022-11-17T10:00:53.198Z,84.91
2022-11-17T10:03:36.354Z,83.21
2022-11-17T10:06:30.064Z,82.13
2022-11-17T10:09:36.706Z,76.66
2022-11-17T10:12:20.998Z,62.61
2022-11-17T10:14:52.357Z,55.42
2022-11-17T10:17:22.735Z,52.53
2022-11-17T10:19:52.495Z,48.97
2022-11-17T10:22:38.063Z,52.43
2022-11-17T10:25:36.192Z,54.54
2022-11-17T10:28:08.993Z,57.42
2022-11-17T10:30:39.305Z,57.55
2022-11-17T10:33:09.025Z,58.64
2022-11-17T10:35:38.805Z,61.03
2022-11-17T10:38:24.063Z,63.13
2022-11-17T10:40:55.422Z,63.86
2022-11-17T10:43:30.441Z,64.86
2022-11-17T10:46:08.834Z,64.09
2022-11-17T10:48:41.261Z,60.78
2022-11-17T10:51:20.814Z,56.74
2022-11-17T10:54:22.074Z,56.15
2022-11-17T10:56:54.191Z,55.43
2022-11-17T10:59:31.394Z,55.69
2022-11-17T11:02:31.889Z,60.54
2022-11-17T11:05:10.570Z,57.57
2022-11-17T11:07:41.709Z,59.27
2022-11-17T11:10:38.940Z,59.62
2022-11-17T11:13:37.444Z,59.31
2022-11-17T11:16:07.916Z,58.20
2022-11-17T11:18:37.796Z,54.33
2022-11-17T11:21:45.426Z,54.82
2022-11-17T11:24:31.333Z,54.72
2022-11-17T11:27:31.512Z,57.40
2022-11-17T11:30:13.437Z,57.13
2022-11-17T11:32:55.393Z,55.74
2022-11-17T11:35:53.609Z,55.68
2022-11-17T11:38:32.392Z,53.19
2022-11-17T11:41:20.472Z,51.57
2022-11-17T11:43:55.838Z,52.52
2022-11-17T11:47:02.496Z,54.66
2022-11-17T11:49:53.482Z,51.79
2022-11-17T11:52:29.106Z,50.92
2022-11-17T11:55:04.142Z,49.61
2022-11-17T11:57:40.830Z,49.99
2022-11-17T12:00:18.587Z,49.40
2022-11-17T12:02:48.941Z,49.90
2022-11-17T12:05:37.221Z,49.53
2022-11-17T12:08:30.677Z,53.28
2022-11-17T12:11:31.186Z,51.88
2022-11-17T12:14:03.197Z,48.98
2022-11-17T12:16:41.232Z,48.54
2022-11-17T12:19:48.109Z,46.40
2022-11-17T12:22:23.961Z,42.08
2022-11-17T12:24:59.295Z,47.87
2022-11-17T12:27:38.276Z,45.39
2022-11-17T12:30:34.751Z,45.04
2022-11-17T12:33:09.693Z,43.81
2022-11-17T12:35:41.503Z,43.68
2022-11-17T12:38:21.117Z,43.56
2022-11-17T12:40:57.704Z,42.01
2022-11-17T12:43:29.211Z,41.22
2022-11-17T12:46:22.196Z,41.14
2022-11-17T12:49:18.900Z,45.27
2022-11-17T12:52:07.792Z,42.72
2022-11-17T12:54:55.504Z,41.23
2022-11-17T12:57:35.732Z,40.84
2022-11-17T13:00:21.461Z,40.57
2022-11-17T13:03:14.101Z,42.83
2022-11-17T13:05:44.230Z,39.47
2022-11-17T13:08:16.816Z,43.45
2022-11-17T13:10:46.771Z,41.21
2022-11-17T13:13:25.729Z,40.06
2022-11-17T13:16:00.239Z,40.42
2022-11-17T13:18:39.146Z,41.39
2022-11-17T13:21:32.871Z,41.78
2022-11-17T13:24:02.872Z,40.68
2022-11-17T13:26:42.592Z,41.58
2022-11-17T13:29:19.877Z,41.31
2022-11-17T13:31:50.077Z,41.98
2022-11-17T13:34:22.313Z,41.28
2022-11-17T13:37:00.741Z,38.89
2022-11-17T13:39:30.912Z,39.30
2022-11-17T13:42:04.158Z,40.24
2022-11-17T13:44:34.814Z,37.26
2022-11-17T13:47:28.767Z,37.53
2022-11-17T13:50:27.889Z,35.51
2022-11-17T13:53:00.349Z,35.61
2022-11-17T13:55:30.741Z,40.37
2022-11-17T13:58:09.374Z,33.77
2022-11-17T14:00:39.501Z,33.22
2022-11-17T14:03:41.688Z,32.41
2022-11-17T14:06:14.359Z,35.96
2022-11-17T14:08:45.758Z,33.63
2022-11-17T14:11:22.476Z,35.46
2022-11-17T14:13:59.910Z,34.27
2022-11-17T14:16:40.129Z,35.65
2022-11-17T14:19:18.340Z,31.10
2022-11-17T14:22:09.636Z,33.02
2022-11-17T14:24:40.171Z,37.18
2022-11-17T14:27:28.521Z,35.41
2022-11-17T14:29:58.741Z,36.57
2022-11-17T14:32:28.414Z,34.42
2022-11-17T14:34:58.996Z,31.79
2022-11-17T14:37:31.380Z,31.92
2022-11-17T14:40:01.971Z,33.18
2022-11-17T14:42:35.924Z,34.25
2022-11-17T14:45:06.852Z,33.99
2022-11-17T14:47:37.215Z,35.29
2022-11-17T14:50:07.757Z,33.34
2022-11-17T14:52:40.471Z,31.28
2022-11-17T14:55:11.960Z,32.78
2022-11-17T14:57:43.619Z,35.33
2022-11-17T15:00:19.945Z,37.50
2022-11-17T15:02:50.703Z,33.93
2022-11-17T15:05:20.519Z,37.04
2022-11-17T15:07:50.411Z,33.39
2022-11-17T15:10:20.509Z,31.27
2022-11-17T15:12:50.205Z,35.52
2022-11-17T15:15:20.028Z,34.25
2022-11-17T15:17:51.639Z,33.09
2022-11-17T15:20:21.570Z,34.28
2022-11-17T15:22:51.849Z,30.99
2022-11-17T15:25:21.825Z,32.20
2022-11-17T15:27:51.541Z,33.62
2022-11-17T15:30:21.293Z,31.70
2022-11-17T15:32:51.003Z,36.04
2022-11-17T15:35:21.677Z,33.99
2022-11-17T15:37:52.292Z,33.14
2022-11-17T15:40:22.287Z,33.61
2022-11-17T15:42:54.959Z,32.95
2022-11-17T15:45:25.167Z,33.36
2022-11-17T15:47:54.913Z,32.73
2022-11-17T15:50:24.722Z,32.97
2022-11-17T15:53:03.968Z,33.09
2022-11-17T15:55:37.413Z,32.58
2022-11-17T15:58:07.498Z,32.17
2022-11-17T16:00:37.336Z,33.88
2022-11-17T16:03:07.827Z,34.08
2022-11-17T16:05:37.644Z,32.63
2022-11-17T16:08:07.612Z,32.84
2022-11-17T16:10:38.084Z,32.08
2022-11-17T16:13:10.535Z,37.07
2022-11-17T16:15:40.550Z,34.82
2022-11-17T16:18:13.482Z,32.15
2022-11-17T16:20:49.562Z,37.13
2022-11-17T16:23:19.956Z,32.91
2022-11-17T16:25:50.683Z,31.22
2022-11-17T16:28:20.416Z,33.56
2022-11-17T16:30:50.478Z,35.15
2022-11-17T16:33:20.279Z,35.97
2022-11-17T16:35:50.042Z,37.44
2022-11-17T16:38:19.993Z,36.64
2022-11-17T16:40:49.921Z,37.83
2022-11-17T16:43:19.663Z,40.18
2022-11-17T16:45:49.651Z,38.56
2022-11-17T16:48:19.443Z,38.25
2022-11-17T16:50:49.217Z,39.28
2022-11-17T16:53:18.985Z,37.60
2022-11-17T16:55:48.679Z,39.15
2022-11-17T16:58:18.441Z,37.13
2022-11-17T17:00:48.136Z,35.56
2022-11-17T17:03:18.693Z,35.46
2022-11-17T17:05:48.495Z,36.63
2022-11-17T17:08:18.538Z,32.98
2022-11-17T17:10:49.917Z,37.37
2022-11-17T17:13:19.986Z,34.39
2022-11-17T17:15:49.885Z,33.81
2022-11-17T17:18:20.925Z,33.95
2022-11-17T17:20:55.239Z,31.56
2022-11-17T17:23:25.997Z,34.55
2022-11-17T17:26:10.873Z,32.74
2022-11-17T17:28:45.712Z,33.86
2022-11-17T17:31:21.293Z,35.15
2022-11-17T17:33:56.737Z,36.58
2022-11-17T17:36:29.590Z,33.37
2022-11-17T17:39:05.461Z,33.87
2022-11-17T17:41:41.548Z,35.29
2022-11-17T17:44:15.452Z,34.71
2022-11-17T17:46:46.169Z,35.62
2022-11-17T17:49:22.854Z,38.14
2022-11-17T17:51:53.124Z,37.17
2022-11-17T17:54:25.132Z,39.22
2022-11-17T17:56:55.177Z,37.43
2022-11-17T17:59:24.985Z,38.25
2022-11-17T18:01:54.745Z,39.40
2022-11-17T18:04:24.524Z,38.58
2022-11-17T18:06:54.286Z,37.40
2022-11-17T18:09:24.042Z,38.05
2022-11-17T18:11:53.780Z,37.56
2022-11-17T18:14:25.327Z,40.17
2022-11-17T18:16:55.604Z,35.78
2022-11-17T18:19:31.401Z,35.10
2022-11-17T18:22:03.748Z,38.57
2022-11-17T18:24:33.533Z,37.27
2022-11-17T18:27:03.799Z,37.29
2022-11-17T18:29:33.615Z,39.60
2022-11-17T18:32:04.174Z,39.12
2022-11-17T18:34:34.174Z,38.65
2022-11-17T18:37:03.909Z,39.29
2022-11-17T18:39:34.602Z,41.79
2022-11-17T18:42:04.598Z,43.16
2022-11-17T18:44:34.338Z,40.68
2022-11-17T18:47:04.212Z,40.86
2022-11-17T18:49:35.614Z,40.82
2022-11-17T18:52:05.845Z,41.04
2022-11-17T18:54:36.421Z,38.38
2022-11-17T18:57:06.141Z,37.79
2022-11-17T18:59:36.106Z,38.02
2022-11-17T19:02:06.110Z,40.05
2022-11-17T19:04:35.826Z,38.87
2022-11-17T19:07:05.638Z,41.10
2022-11-17T19:09:35.533Z,42.70
2022-11-17T19:12:05.758Z,43.20
2022-11-17T19:14:35.593Z,43.87
2022-11-17T19:17:05.722Z,45.67
2022-11-17T19:19:35.471Z,46.78
2022-11-17T19:22:05.647Z,48.07
2022-11-17T19:24:35.457Z,48.75
2022-11-17T19:27:05.251Z,49.99
2022-11-17T19:29:34.950Z,50.02
2022-11-17T19:32:04.704Z,49.73
2022-11-17T19:34:34.476Z,51.50
2022-11-17T19:37:04.246Z,50.18
2022-11-17T19:39:34.010Z,52.42
2022-11-17T19:42:03.725Z,52.05
2022-11-17T19:44:34.462Z,51.46
2022-11-17T19:47:04.161Z,52.31
2022-11-17T19:49:34.241Z,51.50
2022-11-17T19:52:04.249Z,53.09
2022-11-17T19:54:34.224Z,52.31
2022-11-17T19:57:04.271Z,53.01
2022-11-17T19:59:34.284Z,53.15
2022-11-17T20:02:04.292Z,54.26
2022-11-17T20:04:33.986Z,54.80
2022-11-17T20:07:03.725Z,55.62
2022-11-17T20:09:33.511Z,54.09
2022-11-17T20:12:04.733Z,54.54
2022-11-17T20:14:34.770Z,54.29
2022-11-17T20:17:04.443Z,55.06
2022-11-17T20:19:35.008Z,55.21
2022-11-17T20:22:05.016Z,55.62
2022-11-17T20:24:35.129Z,54.46
2022-11-17T20:27:05.257Z,54.82
2022-11-17T20:29:35.141Z,55.70
2022-11-17T20:32:04.847Z,54.94
2022-11-17T20:34:34.562Z,56.63
2022-11-17T20:37:04.265Z,56.68
2022-11-17T20:39:34.653Z,56.71
2022-11-17T20:42:04.425Z,56.62
2022-11-17T20:44:34.124Z,55.91
2022-11-17T20:47:04.189Z,57.37
2022-11-17T20:49:33.973Z,56.65
2022-11-17T20:52:04.619Z,55.51
2022-11-17T20:54:38.065Z,54.28
2022-11-17T20:57:07.949Z,54.91
2022-11-17T20:59:37.888Z,55.32
2022-11-17T21:02:08.396Z,56.46
2022-11-17T21:04:38.108Z,57.44
2022-11-17T21:07:08.068Z,58.00
2022-11-17T21:09:37.872Z,58.85
2022-11-17T21:12:07.876Z,59.06
2022-11-17T21:14:37.588Z,56.23
2022-11-17T21:17:27.523Z,54.90
2022-11-17T21:19:59.286Z,54.00
2022-11-17T21:22:30.259Z,55.00
2022-11-17T21:25:00.278Z,52.49
2022-11-17T21:27:30.078Z,53.29
2022-11-17T21:29:59.822Z,52.48
2022-11-17T21:32:29.566Z,55.13
2022-11-17T21:35:00.535Z,57.06
2022-11-17T21:37:30.266Z,57.75
2022-11-17T21:40:00.313Z,61.97
2022-11-17T21:42:30.084Z,62.87
2022-11-17T21:44:59.781Z,63.56
2022-11-17T21:47:29.466Z,64.77
2022-11-17T21:49:59.192Z,65.96
2022-11-17T21:52:29.264Z,63.63
2022-11-17T21:55:00.145Z,64.53
2022-11-17T21:57:31.032Z,63.18
2022-11-17T22:00:01.308Z,64.65
2022-11-17T22:02:33.864Z,66.03
2022-11-17T22:05:03.949Z,66.53
2022-11-17T22:07:33.680Z,65.43
2022-11-17T22:10:03.761Z,66.26
2022-11-17T22:12:34.900Z,67.00
2022-11-17T22:15:10.171Z,67.34
2022-11-17T22:17:41.492Z,68.94
2022-11-17T22:20:11.678Z,68.13
2022-11-17T22:22:41.527Z,68.57
2022-11-17T22:25:37.642Z,69.03
2022-11-17T22:28:01.218Z,67.65
2022-11-17T22:30:31.090Z,66.79
2022-11-17T22:33:01.321Z,66.66
2022-11-17T22:35:35.740Z,64.94
2022-11-17T22:38:06.064Z,64.95
2022-11-17T22:40:35.848Z,63.58
2022-11-17T22:43:09.069Z,65.65
2022-11-17T22:45:42.062Z,68.11
2022-11-17T22:48:14.698Z,68.15
2022-11-17T22:50:45.336Z,68.77
2022-11-17T22:53:15.047Z,70.09
2022-11-17T22:55:44.801Z,70.15
2022-11-17T22:58:17.045Z,68.67
2022-11-17T23:00:47.888Z,69.59
2022-11-17T23:03:18.254Z,69.18
2022-11-17T23:05:48.160Z,69.10
2022-11-17T23:08:18.226Z,69.71
2022-11-17T23:10:48.176Z,70.30
2022-11-17T23:13:17.997Z,70.92
2022-11-17T23:15:47.735Z,71.55
2022-11-17T23:18:17.911Z,70.46
2022-11-17T23:20:51.559Z,71.05
2022-11-17T23:23:21.822Z,73.60
2022-11-17T23:25:51.567Z,73.44
2022-11-17T23:28:21.330Z,76.08
2022-11-17T23:30:51.048Z,75.84
2022-11-17T23:33:20.920Z,75.95
2022-11-17T23:35:50.821Z,76.60
2022-11-17T23:38:20.523Z,78.02
2022-11-17T23:40:51.332Z,77.79
2022-11-17T23:43:21.232Z,78.77
2022-11-17T23:45:50.980Z,80.15
2022-11-17T23:48:20.794Z,79.84
2022-11-17T23:50:51.148Z,79.12
2022-11-17T23:53:20.873Z,78.87
2022-11-17T23:55:58.045Z,79.54
2022-11-17T23:58:28.456Z,79.04
